Hlavní strana
METAR-TAF:

METAR-TAF

Letiště :

San José, Kostarika

zeměpisná šířka: 10-00N, zeměpisná délka: 084-13W, výška: 920 m

Aktuální stav počasí

Zpráva byla vytvořena před 55 minutami, v 09:00 UTC
Východojihovýchodní vítr 10 kt, proměnlivý mezi východním a jihovýchodním
Teplota 21°C
Vlhkost vzduchu 69%
Tlak 1015 hPa
Viditelnost 10 km a více
Žádná oblačnost pod 1500 m, nevyskytují se cumulonimby.

METAR: MROC 300900Z 11010KT 080V140 CAVOK 21/15 A2998 NOSIG

Čas: 03:55 (09:55 UTC)

Předpověď počasí

Zpráva byla vytvořena před 4 hodinami a 53 minutami, v 05:02 UTC
Předpověď platná od 30 v 06 UTC do 31 v 06 UTC
Východní vítr 14 kt
Viditelnost 10 km a více
Skoro jasno ve výšce 4000 ft

TAF: MROC 300502Z 3006/3106 10014KT 9999 FEW040 TX30/3020Z TN21/3011Z

Stav a předpovědi počasí z více než 4 000 letišť (zprávy METAR a TAF).

Červené a žluté tečky na mapě představují dostupné meteorologické stanice.

Když kurzor umístíte na tečku, zobrazí se název stanice.

Pak kliknutím zobrazíte stav a předpověď počasí.

Chcete-li změnit mapu, kliknutím na zelené tlačítko se znaménkem +mapu přiblížíte, kliknutím na zelené tlačítko se znaménkem – mapu oddálíte a kliknutím na zelené šipky přejdete na sousední mapy.


METAR-TAF: